createdAt,value
2019-01-17T00:04:38.923Z,12.37
2019-01-17T00:08:54.620Z,12.17
2019-01-17T00:13:09.998Z,12.67
2019-01-17T00:17:33.512Z,12.63
2019-01-17T00:21:57.651Z,12.80
2019-01-17T00:26:12.585Z,12.17
2019-01-17T00:30:39.543Z,12.53
2019-01-17T00:35:06.334Z,11.93
2019-01-17T00:39:29.236Z,12.73
2019-01-17T00:43:56.796Z,14.20
2019-01-17T00:48:23.886Z,12.77
2019-01-17T00:52:47.915Z,12.70
2019-01-17T00:57:14.752Z,13.30
2019-01-17T01:01:37.557Z,11.90
2019-01-17T01:05:52.527Z,11.90
2019-01-17T01:10:22.711Z,12.90
2019-01-17T01:14:44.075Z,12.50
2019-01-17T01:19:11.746Z,11.30
2019-01-17T01:23:39.113Z,12.30
2019-01-17T01:28:08.107Z,12.50
2019-01-17T01:32:40.970Z,12.17
2019-01-17T01:37:03.723Z,12.73
2019-01-17T01:41:18.221Z,12.53
2019-01-17T01:45:39.078Z,13.00
2019-01-17T01:49:51.824Z,12.57
2019-01-17T01:53:56.925Z,12.97
2019-01-17T01:58:02.084Z,13.23
2019-01-17T02:02:07.238Z,12.73
2019-01-17T02:06:12.349Z,12.67
2019-01-17T02:10:17.413Z,12.47
2019-01-17T02:14:22.457Z,13.07
2019-01-17T02:18:27.603Z,11.33
2019-01-17T02:22:32.769Z,12.57
2019-01-17T02:26:37.904Z,11.83
2019-01-17T02:30:42.879Z,12.27
2019-01-17T02:34:48.944Z,14.27
2019-01-17T02:38:54.077Z,12.90
2019-01-17T02:42:59.126Z,14.90
2019-01-17T02:47:04.096Z,16.03
2019-01-17T02:51:09.014Z,15.10
2019-01-17T02:55:14.070Z,14.60
2019-01-17T02:59:19.197Z,16.70
2019-01-17T03:03:24.338Z,15.53
2019-01-17T03:07:29.378Z,16.87
2019-01-17T03:11:34.395Z,16.53
2019-01-17T03:15:39.446Z,17.10
2019-01-17T03:19:44.572Z,15.03
2019-01-17T03:23:49.677Z,16.77
2019-01-17T03:27:54.929Z,17.97
2019-01-17T03:31:59.958Z,17.30
2019-01-17T03:36:05.039Z,19.13
2019-01-17T03:40:12.041Z,19.50
2019-01-17T03:44:17.071Z,17.97
2019-01-17T03:48:22.229Z,19.83
2019-01-17T03:52:27.362Z,19.47
2019-01-17T03:56:32.636Z,17.90
2019-01-17T04:00:37.766Z,19.27
2019-01-17T04:04:42.936Z,19.43
2019-01-17T04:08:47.889Z,17.87
2019-01-17T04:12:52.986Z,17.00
2019-01-17T04:16:58.054Z,18.33
2019-01-17T04:21:03.207Z,18.10
2019-01-17T04:25:08.767Z,17.67
2019-01-17T04:29:13.825Z,18.33
2019-01-17T04:33:18.935Z,18.57
2019-01-17T04:37:23.974Z,20.87
2019-01-17T04:41:29.286Z,20.53
2019-01-17T04:45:34.336Z,19.73
2019-01-17T04:49:39.370Z,19.27
2019-01-17T04:53:44.399Z,20.97
2019-01-17T04:57:49.408Z,20.00
2019-01-17T05:01:54.513Z,19.57
2019-01-17T05:05:59.683Z,19.07
2019-01-17T05:10:05.397Z,19.17
2019-01-17T05:14:10.482Z,20.37
2019-01-17T05:18:15.508Z,19.87
2019-01-17T05:22:20.655Z,19.03
2019-01-17T05:26:25.804Z,18.77
2019-01-17T05:30:30.946Z,18.87
2019-01-17T05:34:39.605Z,17.67
2019-01-17T05:38:42.926Z,19.37
2019-01-17T05:42:48.894Z,18.07
2019-01-17T05:46:54.040Z,18.30
2019-01-17T05:50:59.060Z,17.43
2019-01-17T05:55:04.784Z,19.17
2019-01-17T05:59:09.781Z,18.93
2019-01-17T06:03:14.872Z,19.07
2019-01-17T06:07:19.935Z,19.07
2019-01-17T06:11:25.100Z,17.27
2019-01-17T06:15:30.624Z,18.00
2019-01-17T06:19:35.704Z,18.77
2019-01-17T06:23:41.494Z,17.33
2019-01-17T06:27:46.617Z,16.73
2019-01-17T06:31:51.644Z,17.93
2019-01-17T06:35:56.700Z,16.53
2019-01-17T06:40:01.749Z,16.60
2019-01-17T06:44:06.773Z,15.30
2019-01-17T06:48:11.849Z,14.63
2019-01-17T06:52:16.891Z,15.10
2019-01-17T06:56:21.951Z,14.23
2019-01-17T07:00:27.100Z,14.83
2019-01-17T07:04:32.100Z,14.13
2019-01-17T07:08:37.162Z,13.67
2019-01-17T07:12:42.219Z,14.50
2019-01-17T07:16:47.270Z,14.13
2019-01-17T07:20:52.419Z,15.40
2019-01-17T07:24:57.462Z,15.78
2019-01-17T07:29:02.600Z,15.57
2019-01-17T07:33:07.663Z,15.83
2019-01-17T07:37:12.791Z,18.83
2019-01-17T07:41:17.800Z,16.80
2019-01-17T07:45:25.725Z,15.57
2019-01-17T07:49:31.985Z,13.77
2019-01-17T07:53:37.095Z,13.10
2019-01-17T07:57:42.709Z,10.07
2019-01-17T08:01:47.718Z,9.30
2019-01-17T08:05:52.736Z,9.20
2019-01-17T08:09:57.764Z,8.30
2019-01-17T08:14:04.222Z,8.10
2019-01-17T08:18:09.713Z,7.83
2019-01-17T08:22:14.739Z,8.03
2019-01-17T08:26:19.839Z,7.53
2019-01-17T08:30:26.889Z,7.08
2019-01-17T08:34:31.910Z,6.50
2019-01-17T08:38:37.012Z,5.10
2019-01-17T08:42:43.008Z,5.67
2019-01-17T08:46:47.942Z,4.93
2019-01-17T08:50:53.868Z,4.93
2019-01-17T08:54:58.880Z,4.10
2019-01-17T08:59:03.950Z,3.60
2019-01-17T09:03:09.093Z,4.07
2019-01-17T09:07:14.184Z,3.40
2019-01-17T09:11:19.186Z,2.73
2019-01-17T09:15:26.450Z,3.10
2019-01-17T09:19:31.554Z,3.67
2019-01-17T09:23:36.648Z,3.80
2019-01-17T09:27:41.756Z,4.10
2019-01-17T09:31:46.751Z,3.70
2019-01-17T09:35:51.783Z,3.67
2019-01-17T09:39:56.896Z,3.63
2019-01-17T09:44:01.912Z,4.27
2019-01-17T09:48:06.934Z,4.50
2019-01-17T09:52:15.186Z,3.70
2019-01-17T09:56:20.183Z,3.53
2019-01-17T10:00:27.456Z,5.93
2019-01-17T10:04:32.519Z,7.47
2019-01-17T10:08:37.619Z,3.57
2019-01-17T10:12:42.889Z,3.20
2019-01-17T10:17:34.548Z,3.72
2019-01-17T10:22:04.482Z,2.10
2019-01-17T10:26:22.319Z,2.90
2019-01-17T10:30:55.250Z,7.63
2019-01-17T10:35:33.009Z,3.00
2019-01-17T10:39:51.002Z,2.40
2019-01-17T10:44:17.123Z,2.30
2019-01-17T10:48:46.054Z,3.03
2019-01-17T10:53:40.763Z,4.87
2019-01-17T10:58:03.883Z,5.10
2019-01-17T11:03:01.749Z,5.87
2019-01-17T11:07:29.330Z,6.20
2019-01-17T11:12:15.228Z,5.40
2019-01-17T11:17:12.056Z,5.83
2019-01-17T11:21:56.943Z,5.90
2019-01-17T11:26:37.389Z,4.90
2019-01-17T11:31:23.465Z,5.23
2019-01-17T11:35:55.556Z,6.40
2019-01-17T11:40:31.657Z,6.50
2019-01-17T11:44:54.323Z,7.07
2019-01-17T11:49:45.089Z,7.70
2019-01-17T11:54:25.105Z,3.80
2019-01-17T11:59:10.555Z,4.23
2019-01-17T12:04:01.086Z,10.35
2019-01-17T12:08:06.069Z,2.73
2019-01-17T12:12:13.143Z,4.90
2019-01-17T12:16:18.195Z,7.27
2019-01-17T12:20:23.296Z,10.93
2019-01-17T12:24:28.437Z,8.03
2019-01-17T12:28:33.534Z,9.60
2019-01-17T12:32:38.822Z,3.60
2019-01-17T12:36:43.971Z,11.13
2019-01-17T12:40:49.106Z,10.83
2019-01-17T12:44:54.256Z,9.23
2019-01-17T12:48:59.170Z,9.97
2019-01-17T12:53:04.242Z,10.50
2019-01-17T12:57:09.518Z,10.03
2019-01-17T13:01:16.156Z,8.00
2019-01-17T13:05:21.611Z,6.90
2019-01-17T13:09:26.863Z,6.73
2019-01-17T13:13:31.913Z,5.57
2019-01-17T13:17:36.961Z,4.13
2019-01-17T13:21:42.322Z,4.47
2019-01-17T13:25:47.394Z,3.30
2019-01-17T13:29:52.431Z,2.33
2019-01-17T13:33:57.825Z,2.00
2019-01-17T13:38:02.889Z,1.97
2019-01-17T13:42:07.956Z,1.60
2019-01-17T13:46:13.087Z,1.47
2019-01-17T13:50:18.440Z,1.27
2019-01-17T13:54:23.512Z,1.47
2019-01-17T13:58:28.528Z,1.50
2019-01-17T14:02:34.382Z,1.40
2019-01-17T14:06:39.496Z,1.40
2019-01-17T14:10:44.674Z,1.47
2019-01-17T14:14:49.749Z,1.10
2019-01-17T14:18:54.732Z,1.20
2019-01-17T14:22:59.741Z,1.50
2019-01-17T14:27:04.786Z,1.43
2019-01-17T14:31:09.846Z,1.80
2019-01-17T14:35:14.834Z,1.77
2019-01-17T14:39:19.987Z,1.30
2019-01-17T14:43:26.649Z,1.67
2019-01-17T14:47:31.674Z,1.30
2019-01-17T14:51:36.872Z,1.47
2019-01-17T14:55:43.179Z,1.63
2019-01-17T14:59:48.375Z,1.47
2019-01-17T15:03:53.515Z,2.10
2019-01-17T15:07:58.560Z,1.67
2019-01-17T15:12:03.594Z,2.20
2019-01-17T15:16:08.668Z,1.80
2019-01-17T15:20:17.685Z,1.57
2019-01-17T15:24:22.659Z,1.67
2019-01-17T15:28:27.784Z,2.00
2019-01-17T15:32:32.842Z,1.90
2019-01-17T15:36:38.041Z,3.97
2019-01-17T15:40:43.097Z,1.63
2019-01-17T15:44:48.142Z,1.83
2019-01-17T15:48:57.848Z,2.00
2019-01-17T15:53:02.985Z,2.13
2019-01-17T15:57:08.207Z,1.83
2019-01-17T16:01:16.847Z,2.23
2019-01-17T16:05:21.990Z,1.90
2019-01-17T16:09:27.076Z,1.87
2019-01-17T16:13:32.208Z,1.90
2019-01-17T16:17:37.278Z,2.47
2019-01-17T16:21:42.399Z,2.20
2019-01-17T16:25:47.917Z,2.57
2019-01-17T16:29:53.027Z,3.20
2019-01-17T16:33:58.370Z,2.27
2019-01-17T16:38:03.734Z,3.00
2019-01-17T16:42:08.697Z,4.33
2019-01-17T16:46:13.951Z,3.10
2019-01-17T16:50:21.569Z,3.30
2019-01-17T16:54:26.790Z,3.80
2019-01-17T16:58:31.861Z,4.30
2019-01-17T17:02:39.284Z,4.97
2019-01-17T17:06:44.303Z,4.63
2019-01-17T17:10:50.723Z,4.47
2019-01-17T17:14:55.749Z,4.87
2019-01-17T17:19:00.800Z,4.57
2019-01-17T17:23:06.194Z,4.27
2019-01-17T17:27:11.170Z,3.97
2019-01-17T17:31:16.234Z,3.37
2019-01-17T17:35:21.337Z,3.83
2019-01-17T17:39:27.866Z,3.50
2019-01-17T17:43:33.677Z,3.70
2019-01-17T17:47:40.094Z,4.60
2019-01-17T17:51:46.094Z,4.40
2019-01-17T17:55:52.168Z,5.80
2019-01-17T17:59:58.903Z,7.40
2019-01-17T18:04:05.124Z,8.53
2019-01-17T18:08:11.869Z,9.03
2019-01-17T18:12:17.788Z,12.77
2019-01-17T18:16:23.541Z,10.67
2019-01-17T18:20:30.429Z,12.40
2019-01-17T18:24:36.178Z,16.80
2019-01-17T18:28:42.561Z,12.73
2019-01-17T18:32:48.382Z,11.97
2019-01-17T18:36:54.206Z,14.80
2019-01-17T18:41:02.230Z,14.43
2019-01-17T18:45:09.851Z,14.40
2019-01-17T18:49:15.776Z,13.83
2019-01-17T18:53:20.864Z,18.30
2019-01-17T18:57:25.933Z,21.07
2019-01-17T19:01:31.108Z,27.40
2019-01-17T19:05:36.245Z,14.90
2019-01-17T19:09:41.511Z,16.87
2019-01-17T19:13:48.212Z,12.97
2019-01-17T19:17:53.395Z,13.57
2019-01-17T19:21:58.506Z,13.17
2019-01-17T19:26:03.639Z,15.00
2019-01-17T19:30:12.147Z,13.57
2019-01-17T19:34:17.394Z,14.63
2019-01-17T19:38:22.547Z,12.87
2019-01-17T19:42:28.970Z,16.63
2019-01-17T19:46:34.143Z,14.93
2019-01-17T19:50:39.899Z,16.03
2019-01-17T19:54:44.852Z,16.27
2019-01-17T19:58:50.263Z,23.97
2019-01-17T20:02:55.450Z,18.07
2019-01-17T20:07:00.764Z,22.63
2019-01-17T20:11:06.968Z,20.17
2019-01-17T20:15:12.357Z,23.07
2019-01-17T20:19:17.518Z,26.63
2019-01-17T20:23:23.045Z,22.83
2019-01-17T20:27:28.230Z,20.47
2019-01-17T20:31:33.317Z,14.63
2019-01-17T20:35:38.578Z,14.50
2019-01-17T20:39:45.175Z,13.90
2019-01-17T20:43:50.495Z,12.57
2019-01-17T20:47:55.746Z,13.00
2019-01-17T20:52:01.807Z,13.00
2019-01-17T20:56:07.034Z,61.67
2019-01-17T21:00:16.673Z,12.20
2019-01-17T21:04:21.859Z,13.27
2019-01-17T21:08:27.031Z,14.87
2019-01-17T21:12:32.111Z,16.33
2019-01-17T21:16:37.227Z,16.87
2019-01-17T21:20:42.240Z,14.07
2019-01-17T21:24:47.682Z,14.43
2019-01-17T21:28:52.850Z,14.37
2019-01-17T21:32:58.028Z,15.03
2019-01-17T21:37:04.059Z,15.37
2019-01-17T21:41:09.251Z,15.80
2019-01-17T21:45:15.670Z,17.53
2019-01-17T21:49:20.956Z,14.10
2019-01-17T21:53:26.736Z,15.43
2019-01-17T21:57:31.807Z,31.67
2019-01-17T22:01:36.911Z,16.13
2019-01-17T22:05:42.620Z,15.30
2019-01-17T22:09:49.140Z,14.73
2019-01-17T22:13:54.298Z,15.13
2019-01-17T22:17:59.425Z,14.87
2019-01-17T22:22:04.505Z,15.17
2019-01-17T22:26:10.695Z,14.47
2019-01-17T22:30:21.014Z,14.53
2019-01-17T22:34:26.086Z,15.27
2019-01-17T22:38:31.290Z,16.73
2019-01-17T22:42:36.595Z,15.87
2019-01-17T22:46:41.696Z,15.13
2019-01-17T22:50:46.859Z,16.17
2019-01-17T22:54:52.031Z,15.87
2019-01-17T22:58:57.138Z,14.03
2019-01-17T23:03:02.214Z,12.87
2019-01-17T23:07:07.309Z,13.80
2019-01-17T23:11:12.507Z,15.83
2019-01-17T23:15:17.588Z,16.30
2019-01-17T23:19:22.768Z,17.30
2019-01-17T23:23:27.830Z,15.43
2019-01-17T23:27:33.178Z,14.07
2019-01-17T23:31:38.339Z,15.50
2019-01-17T23:35:43.532Z,13.87
2019-01-17T23:39:48.979Z,14.90
2019-01-17T23:43:54.636Z,14.93
2019-01-17T23:48:00.042Z,14.93
2019-01-17T23:52:05.485Z,15.90
2019-01-17T23:56:10.582Z,13.70
